Time;durP1;ratioP1;P1;durP2;ratioP2;P2;SDS_P1;SDS_P2;PMS_P1;PMS_P2;Temp;Humidity;BMP_temperature;BMP_pressure;BME280_temperature;BME280_humidity;BME280_pressure;Samples;Min_cycle;Max_cycle;Signal;HPM_P1;HPM_P2
2022/05/22 00:01:49;;;;;;;10.23;4.47;;;;;;;12.88;75.71;101867.53;6225906;23;20004;-78
2022/05/22 00:04:15;;;;;;;8.38;4.47;;;;;;;12.87;75.94;101861.34;6252658;23;20400;-78
2022/05/22 00:06:40;;;;;;;13.23;4.50;;;;;;;12.88;75.80;101870.19;6252361;23;20015;-78
2022/05/22 00:09:05;;;;;;;9.00;4.68;;;;;;;12.83;75.57;101859.00;6226159;23;20008;-78
2022/05/22 00:11:31;;;;;;;8.88;4.32;;;;;;;12.83;75.89;101851.84;6252428;23;20059;-78
2022/05/22 00:13:56;;;;;;;9.68;4.50;;;;;;;12.82;76.01;101850.13;6251786;23;20036;-78
2022/05/22 00:16:36;;;;;;;9.53;4.40;;;;;;;12.84;76.28;101847.34;6250389;23;20421;-79
2022/05/22 00:19:07;;;;;;;7.70;4.45;;;;;;;12.85;76.04;101846.41;6251757;23;20231;-79
2022/05/22 00:21:33;;;;;;;13.77;4.97;;;;;;;12.86;76.76;101850.78;6250566;23;20381;-78
2022/05/22 00:23:58;;;;;;;7.38;4.43;;;;;;;12.84;77.32;101842.88;6224218;23;20012;-78
2022/05/22 00:26:24;;;;;;;9.93;4.18;;;;;;;12.90;76.90;101838.94;6251112;23;20015;-79
2022/05/22 00:28:50;;;;;;;11.77;4.88;;;;;;;12.89;77.20;101845.22;6225230;23;20000;-78
2022/05/22 00:31:15;;;;;;;9.40;4.43;;;;;;;12.89;76.23;101842.53;6252586;23;19996;-78
2022/05/22 00:33:41;;;;;;;9.67;4.20;;;;;;;12.90;76.24;101829.09;6253753;23;20008;-78
2022/05/22 00:36:06;;;;;;;7.70;4.43;;;;;;;12.90;76.58;101833.59;6253409;23;20239;-78
2022/05/22 00:38:32;;;;;;;7.85;4.18;;;;;;;12.91;75.93;101835.31;6252092;23;20334;-79
2022/05/22 00:40:57;;;;;;;10.00;5.00;;;;;;;12.90;76.86;101831.78;6252126;23;20004;-79
2022/05/22 00:43:30;;;;;;;11.35;5.57;;;;;;;12.91;76.86;101835.31;6251295;23;20056;-78
2022/05/22 00:45:57;;;;;;;12.13;5.30;;;;;;;12.94;75.70;101827.94;6251663;22;20417;-79
2022/05/22 00:48:23;;;;;;;12.80;5.45;;;;;;;12.95;74.99;101823.44;6251088;23;20046;-80
2022/05/22 00:50:51;;;;;;;11.68;5.30;;;;;;;12.94;74.13;101819.94;6251895;23;20011;-79
2022/05/22 00:53:18;;;;;;;10.07;5.43;;;;;;;12.93;74.81;101826.22;6251764;23;20007;-79
2022/05/22 00:55:44;;;;;;;15.90;5.93;;;;;;;12.94;75.00;101829.75;6251906;23;20083;-78
2022/05/22 00:58:17;;;;;;;12.63;5.75;;;;;;;12.96;73.83;101822.50;6252740;23;20008;-79
2022/05/22 01:00:42;;;;;;;14.48;6.07;;;;;;;12.99;73.84;101818.75;6252584;23;20004;-79
2022/05/22 01:03:26;;;;;;;15.13;5.80;;;;;;;12.99;73.55;101818.75;6252706;23;20307;-79
2022/05/22 01:05:52;;;;;;;13.95;5.35;;;;;;;12.98;74.18;101812.56;6252081;23;20015;-79
2022/05/22 01:08:17;;;;;;;17.33;6.20;;;;;;;12.99;74.54;101808.09;6251956;23;20008;-78
2022/05/22 01:10:47;;;;;;;11.77;6.15;;;;;;;12.96;74.40;101820.69;6253530;23;20099;-79
2022/05/22 01:13:14;;;;;;;13.30;5.50;;;;;;;12.97;74.12;101821.53;6254092;23;20067;-79
2022/05/22 01:15:40;;;;;;;11.32;5.93;;;;;;;12.95;73.54;101829.63;6256062;23;20009;-79
2022/05/22 01:18:05;;;;;;;14.05;5.68;;;;;;;12.95;74.39;101829.63;6251223;23;20011;-79
2022/05/22 01:20:31;;;;;;;12.07;5.80;;;;;;;12.96;74.63;101826.00;6251077;23;20034;-79
2022/05/22 01:22:56;;;;;;;14.40;6.13;;;;;;;12.93;74.05;101823.56;6252934;23;20008;-78
2022/05/22 01:25:21;;;;;;;12.47;5.67;;;;;;;12.91;74.62;101821.97;6252586;23;20062;-79
2022/05/22 01:27:47;;;;;;;13.93;5.67;;;;;;;12.89;74.06;101814.09;6252694;23;20545;-79
2022/05/22 01:30:14;;;;;;;16.83;6.23;;;;;;;12.86;74.35;101813.47;6253788;23;20438;-79
2022/05/22 01:32:43;;;;;;;15.15;5.93;;;;;;;12.85;75.34;101806.41;6267898;23;20247;-78
2022/05/22 01:35:10;;;;;;;;;;;;;;;12.95;73.00;101799.44;6272928;23;20010;-80
2022/05/22 01:37:35;;;;;;;13.15;6.00;;;;;;;12.82;74.50;101799.47;6243342;23;19943;-78
2022/05/22 01:40:01;;;;;;;12.23;6.32;;;;;;;12.80;75.19;101789.88;6253941;23;20011;-78
2022/05/22 01:42:28;;;;;;;16.15;6.28;;;;;;;12.76;74.84;101790.09;6252388;23;20066;-79
2022/05/22 01:44:53;;;;;;;12.60;5.72;;;;;;;12.71;75.04;101781.56;6252951;23;20009;-79
2022/05/22 01:47:19;;;;;;;14.93;5.80;;;;;;;12.70;75.04;101782.53;6252170;22;20047;-79
2022/05/22 01:49:44;;;;;;;15.60;6.80;;;;;;;12.65;75.35;101781.16;6252718;23;20325;-79
2022/05/22 01:52:09;;;;;;;15.75;5.53;;;;;;;12.64;75.19;101788.31;6252596;23;20005;-80
2022/05/22 01:54:35;;;;;;;13.32;6.35;;;;;;;12.59;75.40;101783.31;6252182;23;20028;-78
2022/05/22 01:57:01;;;;;;;12.95;6.15;;;;;;;12.58;76.05;101786.91;6252859;23;20043;-79
2022/05/22 01:59:26;;;;;;;13.27;6.00;;;;;;;12.56;75.49;101794.16;6253451;23;20425;-79
2022/05/22 02:01:52;;;;;;;12.43;5.85;;;;;;;12.53;75.54;101794.38;6255005;23;20004;-78
2022/05/22 02:04:17;;;;;;;13.15;6.32;;;;;;;12.52;76.08;101789.16;6255304;23;20059;-78
2022/05/22 02:09:26;;;;;;;13.18;5.93;;;;;;;12.39;76.89;101771.38;6253936;23;20069;-79
2022/05/22 02:11:51;;;;;;;16.48;6.80;;;;;;;12.32;75.92;101778.09;6228637;23;20016;-79
2022/05/22 02:14:17;;;;;;;10.55;6.18;;;;;;;12.27;76.44;101777.53;6229726;23;20008;-79
2022/05/22 02:16:42;;;;;;;14.70;6.43;;;;;;;12.18;76.51;101781.69;6257453;23;20511;-79
2022/05/22 02:19:07;;;;;;;13.45;7.03;;;;;;;12.14;76.46;101774.88;6255550;23;20011;-79
2022/05/22 02:21:33;;;;;;;16.25;6.57;;;;;;;12.08;77.33;101769.97;6256741;23;20008;-79
2022/05/22 02:23:58;;;;;;;13.43;6.80;;;;;;;12.03;77.19;101767.59;6256657;23;20081;-79
2022/05/22 02:26:23;;;;;;;10.75;6.22;;;;;;;12.02;77.15;101765.03;6256628;23;20243;-79
2022/05/22 02:28:49;;;;;;;14.73;6.47;;;;;;;11.96;77.80;101761.00;6256805;23;20004;-79
2022/05/22 02:31:14;;;;;;;13.38;6.95;;;;;;;11.94;77.89;101754.06;6255544;23;20295;-79
2022/05/22 02:33:40;;;;;;;11.57;6.63;;;;;;;11.93;78.29;101750.56;6256473;23;20054;-79
2022/05/22 02:36:06;;;;;;;14.63;6.78;;;;;;;11.90;77.57;101749.88;6256209;23;20239;-78
2022/05/22 02:38:33;;;;;;;13.82;6.65;;;;;;;11.86;78.40;101754.56;6256223;23;20377;-77
2022/05/22 02:40:58;;;;;;;14.40;6.97;;;;;;;11.80;78.83;101744.31;6255490;23;20070;-78
2022/05/22 02:43:24;;;;;;;14.40;7.07;;;;;;;11.76;78.56;101743.69;6254083;23;20011;-78
2022/05/22 02:45:49;;;;;;;12.65;6.97;;;;;;;11.71;78.44;101737.81;6255267;23;20008;-78
2022/05/22 02:48:15;;;;;;;12.47;7.00;;;;;;;11.70;78.46;101733.44;6229097;23;20020;-78
2022/05/22 02:50:41;;;;;;;15.80;6.72;;;;;;;11.64;79.25;101742.69;6254823;23;20286;-79
2022/05/22 02:53:08;;;;;;;16.23;7.22;;;;;;;11.62;79.22;101741.06;6255841;23;20011;-79
2022/05/22 02:55:33;;;;;;;10.38;7.28;;;;;;;11.66;78.90;101743.44;6255256;23;20007;-78
2022/05/22 02:57:58;;;;;;;13.18;6.82;;;;;;;11.66;79.67;101750.59;6254832;23;20004;-78
2022/05/22 03:00:26;;;;;;;12.73;7.30;;;;;;;11.63;79.31;101753.44;6256208;23;20008;-78
2022/05/22 03:02:52;;;;;;;14.85;7.15;;;;;;;11.61;78.34;101753.53;6254315;23;20004;-78
2022/05/22 03:05:18;;;;;;;11.95;6.45;;;;;;;11.59;79.88;101744.81;6254076;23;20006;-78
2022/05/22 03:07:43;;;;;;;12.20;6.40;;;;;;;11.57;79.10;101741.38;6254114;23;20004;-79
2022/05/22 03:10:12;;;;;;;13.55;7.07;;;;;;;11.59;79.43;101736.84;6254099;23;20011;-78
2022/05/22 03:12:37;;;;;;;12.07;6.63;;;;;;;11.60;79.41;101735.00;6253655;23;20030;-78
2022/05/22 03:15:06;;;;;;;13.32;7.10;;;;;;;11.56;79.77;101739.69;6252756;23;20008;-77
2022/05/22 03:17:32;;;;;;;14.32;7.13;;;;;;;11.56;79.72;101733.53;6226704;23;20026;-78
2022/05/22 03:19:57;;;;;;;14.02;6.95;;;;;;;11.57;79.70;101736.06;6252845;23;20004;-78
2022/05/22 03:22:22;;;;;;;12.48;7.10;;;;;;;11.52;79.75;101738.16;6253465;23;20062;-79
2022/05/22 03:24:47;;;;;;;13.30;7.18;;;;;;;11.54;79.81;101733.63;6252905;23;20011;-78
2022/05/22 03:27:16;;;;;;;10.13;6.38;;;;;;;11.56;79.69;101725.53;6253364;23;20057;-78
2022/05/22 03:29:42;;;;;;;9.80;6.30;;;;;;;11.54;79.59;101712.34;6225648;23;20004;-78
2022/05/22 03:32:09;;;;;;;11.10;6.72;;;;;;;11.53;79.93;101718.59;6250326;23;20135;-79
2022/05/22 03:34:35;;;;;;;13.27;7.07;;;;;;;11.50;80.33;101718.81;6250278;23;20011;-78
2022/05/22 03:37:00;;;;;;;12.93;7.32;;;;;;;11.53;79.78;101715.94;6251860;23;20008;-79
2022/05/22 03:39:26;;;;;;;10.43;6.05;;;;;;;11.51;80.00;101719.66;6251413;23;20046;-78
2022/05/22 03:41:52;;;;;;;14.20;6.90;;;;;;;11.49;79.80;101719.78;6251174;23;20004;-78
2022/05/22 03:44:17;;;;;;;13.00;6.68;;;;;;;11.46;79.77;101710.19;6255250;23;20004;-78
2022/05/22 03:46:44;;;;;;;10.60;6.65;;;;;;;11.43;79.84;101710.38;6253048;22;20004;-79
2022/05/22 03:49:09;;;;;;;14.10;7.63;;;;;;;11.36;80.16;101703.78;6252311;23;20481;-79
2022/05/22 03:51:35;;;;;;;12.68;7.05;;;;;;;11.35;79.94;101701.22;6251063;23;20004;-78
2022/05/22 03:54:00;;;;;;;17.93;6.90;;;;;;;11.32;79.91;101696.09;6251319;23;20054;-78
2022/05/22 03:56:26;;;;;;;14.02;7.10;;;;;;;11.29;80.01;101703.31;6251777;23;20304;-79
2022/05/22 03:58:52;;;;;;;11.32;6.28;;;;;;;11.23;79.77;101706.38;6252495;23;20004;-79
2022/05/22 04:01:17;;;;;;;9.82;5.50;;;;;;;11.15;80.41;101713.16;6253109;23;20011;-79
2022/05/22 04:03:42;;;;;;;7.40;5.60;;;;;;;11.13;80.46;101707.09;6252611;23;20016;-79
2022/05/22 04:06:10;;;;;;;10.48;5.65;;;;;;;11.08;80.62;101713.53;6253511;23;20038;-79
2022/05/22 04:08:36;;;;;;;10.25;6.20;;;;;;;11.08;80.35;101708.22;6253329;23;20083;-79
2022/05/22 04:11:11;;;;;;;9.95;5.80;;;;;;;11.05;80.78;101715.56;6253181;23;20027;-80
2022/05/22 04:13:36;;;;;;;11.30;6.22;;;;;;;11.05;80.69;101713.75;6251412;23;20000;-79
2022/05/22 04:16:02;;;;;;;11.95;6.45;;;;;;;11.07;80.48;101708.34;6227594;23;20099;-78
2022/05/22 04:18:27;;;;;;;11.10;6.38;;;;;;;11.06;80.61;101709.31;6256359;23;20024;-80
2022/05/22 04:20:52;;;;;;;15.73;6.47;;;;;;;11.07;80.72;101711.00;6255730;23;20007;-78
2022/05/22 04:26:02;;;;;;;22.60;6.57;;;;;;;11.09;81.12;101701.09;6254384;23;20229;-78
2022/05/22 04:28:29;;;;;;;12.68;7.38;;;;;;;11.09;81.22;101709.94;6255934;23;20083;-78
2022/05/22 04:30:55;;;;;;;9.40;7.00;;;;;;;11.11;81.25;101704.53;6254152;23;20000;-78
2022/05/22 04:33:20;;;;;;;12.60;7.05;;;;;;;11.17;80.91;101700.59;6255003;23;20012;-79
2022/05/22 04:35:53;;;;;;;12.50;7.80;;;;;;;11.20;81.50;101709.22;6253305;23;20031;-78
2022/05/22 04:38:19;;;;;;;12.73;8.30;;;;;;;11.18;81.48;101699.66;6254287;23;20410;-78
2022/05/22 04:40:56;;;;;;;14.15;7.28;;;;;;;11.21;81.29;101705.63;6229827;23;20008;-78
2022/05/22 04:43:23;;;;;;;14.38;8.25;;;;;;;11.19;81.43;101709.34;6256559;23;20372;-78
2022/05/22 04:45:48;;;;;;;16.85;8.43;;;;;;;11.23;81.62;101717.00;6257013;23;20001;-79
2022/05/22 04:48:13;;;;;;;12.18;7.63;;;;;;;11.28;81.46;101708.75;6256512;22;20023;-79
2022/05/22 04:50:38;;;;;;;12.13;8.47;;;;;;;11.34;81.28;101720.78;6263099;23;20000;-78
2022/05/22 04:53:04;;;;;;;14.40;8.27;;;;;;;11.36;81.65;101711.75;6266252;23;20572;-78
2022/05/22 04:55:29;;;;;;;14.65;9.25;;;;;;;11.39;81.34;101710.69;6265588;23;20020;-78
2022/05/22 04:57:54;;;;;;;11.57;9.07;;;;;;;11.39;81.51;101708.03;6238460;23;20000;-78
2022/05/22 05:00:20;;;;;;;12.23;8.57;;;;;;;11.45;80.95;101710.28;6265988;23;20012;-79
2022/05/22 05:02:45;;;;;;;14.70;9.93;;;;;;;11.46;81.08;101699.53;6266057;23;20015;-79
2022/05/22 05:05:10;;;;;;;13.27;8.80;;;;;;;11.50;81.10;101689.53;6268497;23;20004;-78
2022/05/22 05:07:41;;;;;;;14.20;8.82;;;;;;;11.57;81.03;101695.31;6266941;23;20011;-79
2022/05/22 05:10:08;;;;;;;16.05;9.18;;;;;;;11.60;81.09;101690.63;6266473;23;20015;-78
2022/05/22 05:12:36;;;;;;;15.50;10.13;;;;;;;11.61;81.30;101691.50;6266937;23;20004;-78
2022/05/22 05:15:03;;;;;;;16.17;9.60;;;;;;;11.69;81.16;101698.94;6266803;23;20004;-78
2022/05/22 05:17:28;;;;;;;12.75;9.48;;;;;;;11.76;81.26;101694.94;6262962;23;20079;-79
2022/05/22 05:19:53;;;;;;;14.77;10.03;;;;;;;11.80;81.33;101693.75;6262821;23;20012;-80
2022/05/22 05:22:19;;;;;;;15.18;9.95;;;;;;;11.89;80.98;101693.13;6262181;23;20322;-79
2022/05/22 05:24:44;;;;;;;18.30;10.75;;;;;;;12.02;80.59;101695.81;6261604;23;20000;-80
2022/05/22 05:27:09;;;;;;;18.27;10.02;;;;;;;12.18;79.91;101684.97;6259975;23;20004;-79
2022/05/22 05:29:35;;;;;;;16.87;10.50;;;;;;;12.37;80.14;101687.16;6251914;23;20012;-79
2022/05/22 05:32:00;;;;;;;18.67;10.73;;;;;;;12.53;79.00;101690.44;6253236;23;20565;-80
2022/05/22 05:34:25;;;;;;;16.35;9.85;;;;;;;12.72;78.22;101697.13;6252580;23;20243;-80
2022/05/22 05:36:51;;;;;;;20.05;10.05;;;;;;;12.84;75.57;101692.72;6254535;23;20039;-80
2022/05/22 05:39:16;;;;;;;17.00;9.30;;;;;;;13.07;76.33;101704.38;6256382;23;20345;-80
2022/05/22 05:41:42;;;;;;;15.27;9.52;;;;;;;13.27;75.77;101697.56;6267398;23;20246;-80
2022/05/22 05:44:08;;;;;;;17.20;9.60;;;;;;;13.39;74.57;101695.81;6253884;23;20425;-81
2022/05/22 05:46:37;;;;;;;14.90;9.57;;;;;;;13.61;73.86;101697.75;6254269;22;20037;-80
2022/05/22 05:49:04;;;;;;;17.27;9.73;;;;;;;13.73;73.17;101693.28;6254698;23;20418;-81
2022/05/22 05:51:29;;;;;;;16.77;10.00;;;;;;;13.94;72.96;101696.09;6254046;23;20008;-79
2022/05/22 05:53:57;;;;;;;15.10;9.23;;;;;;;14.09;71.53;101694.94;6254986;23;20295;-79
2022/05/22 05:56:22;;;;;;;13.05;8.95;;;;;;;14.20;71.83;101696.75;6255277;23;20000;-79
2022/05/22 05:58:48;;;;;;;17.50;9.32;;;;;;;14.43;70.79;101705.63;6257056;23;20004;-78
2022/05/22 06:01:15;;;;;;;15.32;9.35;;;;;;;14.55;70.50;101701.97;6254807;23;20010;-78
2022/05/22 06:03:40;;;;;;;18.48;9.55;;;;;;;14.69;70.07;101702.72;6254598;23;20073;-79
2022/05/22 06:06:07;;;;;;;15.30;8.88;;;;;;;14.81;69.40;101699.06;6274507;22;19992;-80
2022/05/22 06:08:33;;;;;;;15.57;9.40;;;;;;;14.91;68.90;101694.69;6275716;22;20023;-80
2022/05/22 06:10:58;;;;;;;13.77;8.43;;;;;;;14.99;68.37;101700.25;6276230;22;19996;-79
2022/05/22 06:13:24;;;;;;;17.38;8.98;;;;;;;15.11;68.59;101703.75;6276124;22;19996;-80
2022/05/22 06:15:50;;;;;;;16.17;8.20;;;;;;;15.15;67.84;101691.81;6276075;22;20030;-79
2022/05/22 06:18:15;;;;;;;14.02;8.93;;;;;;;15.18;67.02;101696.06;6275992;22;19992;-79
2022/05/22 06:20:41;;;;;;;15.95;8.38;;;;;;;15.27;67.69;101700.66;6275963;22;20051;-80
2022/05/22 06:23:06;;;;;;;17.48;9.32;;;;;;;15.19;66.75;101703.13;6276102;22;19988;-80
2022/05/22 06:25:33;;;;;;;14.43;8.70;;;;;;;15.24;66.96;101700.03;6275337;22;19992;-80
2022/05/22 06:28:00;;;;;;;20.90;10.02;;;;;;;15.26;67.80;101706.13;6274244;22;19992;-80
2022/05/22 06:30:25;;;;;;;18.25;8.80;;;;;;;15.33;67.25;101710.84;6274881;22;20011;-80
2022/05/22 06:32:51;;;;;;;18.60;10.20;;;;;;;15.32;68.03;101708.28;6249280;22;19996;-80
2022/05/22 06:35:18;;;;;;;17.10;9.23;;;;;;;15.43;67.01;101708.25;6274461;22;20039;-80
2022/05/22 06:37:44;;;;;;;16.52;9.10;;;;;;;15.64;66.59;101713.63;6275478;22;20006;-80
2022/05/22 06:40:10;;;;;;;17.48;9.82;;;;;;;15.67;66.87;101705.34;6274783;22;19992;-80
2022/05/22 06:42:45;;;;;;;15.50;10.05;;;;;;;15.73;66.45;101704.81;6275182;22;20052;-80
2022/05/22 06:45:14;;;;;;;17.55;9.20;;;;;;;15.92;65.69;101711.34;6248175;22;20008;-80
2022/05/22 06:47:42;;;;;;;16.38;9.77;;;;;;;16.03;66.11;101713.06;6275181;22;20000;-80
2022/05/22 06:50:11;;;;;;;15.77;9.23;;;;;;;16.25;64.93;101704.91;6274591;22;20016;-80
2022/05/22 06:52:38;;;;;;;16.50;9.00;;;;;;;16.31;63.60;101700.81;6275233;22;20071;-80
2022/05/22 06:55:05;;;;;;;17.08;8.82;;;;;;;16.67;63.02;101703.06;6248468;22;20004;-80
2022/05/22 06:57:32;;;;;;;12.13;7.65;;;;;;;16.81;62.19;101706.22;6275147;22;19999;-81
2022/05/22 06:59:59;;;;;;;16.13;8.65;;;;;;;17.12;61.74;101708.84;6274502;22;20004;-80
2022/05/22 07:02:29;;;;;;;14.77;8.65;;;;;;;17.39;60.98;101699.25;6275130;22;20022;-80
2022/05/22 07:05:01;;;;;;;16.30;7.88;;;;;;;17.57;59.95;101700.25;6274550;22;20337;-80
2022/05/22 07:07:29;;;;;;;12.80;8.30;;;;;;;17.75;58.88;101699.50;6275077;22;20036;-80
2022/05/22 07:09:56;;;;;;;16.08;8.63;;;;;;;17.90;58.55;101699.94;6274735;22;20020;-80
2022/05/22 07:12:22;;;;;;;16.98;8.10;;;;;;;18.04;58.51;101698.66;6274603;22;20008;-81
2022/05/22 07:14:48;;;;;;;14.25;7.75;;;;;;;18.22;56.64;101687.97;6274599;22;19995;-82
2022/05/22 07:17:15;;;;;;;15.07;8.50;;;;;;;18.49;56.67;101690.69;6275003;22;20171;-81
2022/05/22 07:19:43;;;;;;;14.60;7.72;;;;;;;18.75;56.66;101687.31;6274705;22;19988;-81
2022/05/22 07:22:08;;;;;;;14.38;7.95;;;;;;;19.06;56.32;101691.53;6274623;22;20047;-81
2022/05/22 07:24:35;;;;;;;12.35;7.03;;;;;;;19.42;54.55;101692.38;6274932;22;20076;-82
2022/05/22 07:27:00;;;;;;;14.85;7.22;;;;;;;19.66;52.93;101683.63;6274495;22;20026;-82
2022/05/22 07:29:26;;;;;;;12.27;6.75;;;;;;;19.90;52.61;101682.13;6248760;22;20000;-81
2022/05/22 07:31:51;;;;;;;13.75;6.50;;;;;;;20.10;52.49;101671.97;6274536;22;20003;-82
2022/05/22 07:34:17;;;;;;;12.98;5.97;;;;;;;20.32;52.13;101671.44;6274809;22;20056;-81
2022/05/22 07:36:42;;;;;;;13.75;6.75;;;;;;;20.57;50.77;101685.03;6248704;22;20004;-81
2022/05/22 07:39:08;;;;;;;13.38;6.40;;;;;;;20.70;50.78;101679.22;6274298;22;20008;-81
2022/05/22 07:41:42;;;;;;;13.27;6.68;;;;;;;20.94;49.57;101675.72;6274632;22;20008;-80
2022/05/22 07:44:07;;;;;;;11.00;6.28;;;;;;;21.01;48.23;101681.31;6273925;22;20000;-81
2022/05/22 07:46:32;;;;;;;10.43;5.45;;;;;;;21.23;47.39;101677.09;6273670;22;20060;-81
2022/05/22 07:48:58;;;;;;;14.15;5.38;;;;;;;21.32;46.18;101675.28;6274149;22;20044;-81
2022/05/22 07:51:23;;;;;;;10.85;5.60;;;;;;;21.39;47.55;101665.47;6274202;22;20015;-82
2022/05/22 07:53:51;;;;;;;11.10;5.05;;;;;;;21.38;46.21;101670.03;6273914;22;20003;-82
2022/05/22 07:56:16;;;;;;;11.63;4.60;;;;;;;21.38;47.05;101666.47;6274712;22;20022;-80
2022/05/22 07:58:42;;;;;;;10.77;4.57;;;;;;;21.48;44.95;101659.06;6275155;22;20012;-81
2022/05/22 08:01:07;;;;;;;12.20;3.80;;;;;;;21.58;43.16;101654.34;6274834;22;20007;-82
2022/05/22 08:03:32;;;;;;;7.88;3.45;;;;;;;21.76;42.11;101656.84;6274466;22;20258;-81
2022/05/22 08:05:58;;;;;;;7.18;2.55;;;;;;;21.78;39.89;101662.09;6274646;22;20003;-81
2022/05/22 08:08:24;;;;;;;8.15;2.55;;;;;;;21.91;42.16;101662.38;6274994;22;20004;-81
2022/05/22 08:10:51;;;;;;;8.20;2.90;;;;;;;22.11;41.20;101649.31;6274409;22;20052;-81
2022/05/22 08:13:16;;;;;;;7.38;3.50;;;;;;;22.34;41.09;101654.84;6248909;22;19996;-80
2022/05/22 08:15:42;;;;;;;7.40;3.85;;;;;;;22.50;42.29;101651.25;6274386;22;19992;-81
2022/05/22 08:18:09;;;;;;;11.00;3.83;;;;;;;22.71;40.21;101647.06;6274830;22;20023;-80
2022/05/22 08:20:36;;;;;;;8.10;2.95;;;;;;;22.79;38.91;101632.63;6274657;22;20000;-79
2022/05/22 08:23:09;;;;;;;7.60;2.97;;;;;;;23.02;41.03;101630.78;6275032;22;20004;-78
2022/05/22 08:25:35;;;;;;;7.80;3.58;;;;;;;23.26;39.24;101628.91;6274615;22;19997;-80
2022/05/22 08:28:01;;;;;;;8.40;2.75;;;;;;;23.48;38.54;101613.63;6274762;22;20056;-80
2022/05/22 08:30:29;;;;;;;7.40;2.60;;;;;;;23.64;36.45;101615.34;6274287;22;20003;-80
2022/05/22 08:32:55;;;;;;;6.35;2.55;;;;;;;23.78;36.06;101609.09;6274794;22;19984;-80
2022/05/22 08:35:24;;;;;;;9.88;2.60;;;;;;;23.96;35.81;101605.19;6274649;22;19992;-79
2022/05/22 08:37:50;;;;;;;;;;;;;;;24.43;40.64;101605.78;6275205;22;20015;-79
2022/05/22 08:40:18;;;;;;;7.55;1.83;;;;;;;24.34;34.63;101597.75;6248549;22;19903;-80
2022/05/22 08:42:47;;;;;;;10.85;2.72;;;;;;;24.36;34.11;101589.41;6249027;22;20026;-80
2022/05/22 08:45:19;;;;;;;7.50;2.85;;;;;;;24.36;34.86;101590.28;6274512;22;20032;-80
2022/05/22 08:48:22;;;;;;;5.93;2.10;;;;;;;24.63;36.96;101587.03;6274630;22;20040;-80
2022/05/22 08:50:49;;;;;;;8.98;2.95;;;;;;;24.67;34.30;101581.03;6258552;22;20007;-80
2022/05/22 08:53:39;;;;;;;11.30;3.90;;;;;;;24.60;35.78;101573.84;6274748;22;20003;-80
2022/05/22 08:59:08;;;;;;;12.55;3.67;;;;;;;24.74;35.72;101575.66;6273837;22;20063;-80
2022/05/22 09:01:43;;;;;;;;;;;;;;;25.24;39.35;101576.53;6274172;22;20011;-80
2022/05/22 09:04:26;;;;;;;10.52;4.43;;;;;;;25.16;34.79;101573.13;6269422;22;19946;-81
2022/05/22 09:07:23;;;;;;;10.68;4.10;;;;;;;25.26;37.75;101560.91;6274406;22;20003;-81
2022/05/22 09:10:04;;;;;;;9.18;3.85;;;;;;;25.36;36.86;101562.41;6246403;22;19996;-81
2022/05/22 09:12:44;;;;;;;8.43;3.72;;;;;;;25.32;35.27;101561.97;6275992;22;19995;-81
2022/05/22 09:15:22;;;;;;;9.35;3.80;;;;;;;25.56;34.25;101563.38;6276124;22;19992;-80
2022/05/22 09:17:57;;;;;;;9.48;4.20;;;;;;;25.79;35.68;101563.09;6274275;22;19992;-80
2022/05/22 09:20:39;;;;;;;7.70;3.67;;;;;;;25.78;34.26;101553.28;6248312;22;20023;-80
2022/05/22 09:23:22;;;;;;;8.90;4.10;;;;;;;25.89;32.56;101551.84;6274501;22;20008;-80
2022/05/22 09:26:06;;;;;;;10.60;4.20;;;;;;;26.01;33.43;101546.69;6274122;22;20026;-80
2022/05/22 09:28:49;;;;;;;9.95;4.20;;;;;;;26.21;34.17;101550.34;6274472;22;19992;-80
2022/05/22 09:31:39;;;;;;;11.45;4.18;;;;;;;26.44;35.40;101545.59;6274081;22;19988;-81
2022/05/22 09:34:24;;;;;;;9.15;4.28;;;;;;;26.42;34.70;101542.25;6274210;22;19988;-81
2022/05/22 09:37:05;;;;;;;13.90;4.15;;;;;;;26.53;33.99;101539.75;6275645;22;20042;-81
2022/05/22 09:39:58;;;;;;;10.63;4.35;;;;;;;26.57;34.84;101538.28;6276250;22;19996;-80
2022/05/22 09:42:48;;;;;;;8.25;4.50;;;;;;;26.54;34.67;101532.41;6276019;22;19996;-80
2022/05/22 09:45:38;;;;;;;10.15;4.15;;;;;;;26.82;34.79;101520.53;6276490;22;20047;-80
2022/05/22 09:48:28;;;;;;;9.35;4.18;;;;;;;26.83;34.19;101514.88;6275870;22;19996;-80
2022/05/22 09:51:07;;;;;;;11.43;3.95;;;;;;;26.77;30.81;101521.97;6276008;22;20012;-80
2022/05/22 09:53:44;;;;;;;8.02;3.45;;;;;;;26.81;30.57;101527.84;6276089;22;19992;-80
2022/05/22 09:56:51;;;;;;;12.43;4.28;;;;;;;27.01;31.83;101529.75;6275426;22;20003;-80
2022/05/22 09:59:41;;;;;;;9.73;3.75;;;;;;;27.08;31.00;101530.56;6275928;22;19996;-80
2022/05/22 10:02:22;;;;;;;7.20;3.50;;;;;;;27.35;31.34;101531.44;6274812;22;19996;-80
2022/05/22 10:05:04;;;;;;;8.23;3.45;;;;;;;27.51;31.22;101541.03;6275780;22;20060;-79
2022/05/22 10:07:33;;;;;;;8.32;3.67;;;;;;;27.79;30.74;101523.53;6274582;22;20011;-80
2022/05/22 10:10:23;;;;;;;10.05;4.07;;;;;;;27.82;29.98;101526.66;6275853;22;19996;-80
2022/05/22 10:13:13;;;;;;;9.85;3.85;;;;;;;27.97;31.21;101520.13;6274516;22;19996;-80
2022/05/22 10:16:12;;;;;;;10.20;4.22;;;;;;;28.15;29.77;101509.34;6275792;22;20011;-80
2022/05/22 10:18:55;;;;;;;7.57;3.08;;;;;;;28.22;31.04;101517.50;6275700;22;19995;-80
2022/05/22 10:21:27;;;;;;;10.05;3.47;;;;;;;28.01;30.82;101518.63;6275736;22;19988;-79
2022/05/22 10:23:59;;;;;;;8.30;3.90;;;;;;;28.25;30.34;101506.13;6275337;22;20024;-79
2022/05/22 10:26:47;;;;;;;8.43;3.40;;;;;;;28.70;29.55;101513.44;6275755;22;20000;-79
2022/05/22 10:29:26;;;;;;;8.85;3.83;;;;;;;28.68;28.68;101510.91;6249361;22;20016;-79
2022/05/22 10:31:59;;;;;;;;;;;;;;;29.24;31.69;101502.88;6275905;22;20017;-79
2022/05/22 10:34:36;;;;;;;13.50;4.53;;;;;;;28.90;28.88;101492.22;6275204;22;19895;-80
2022/05/22 10:37:47;;;;;;;9.20;3.80;;;;;;;29.30;30.30;101497.31;6275032;22;19999;-80
2022/05/22 10:40:21;;;;;;;11.27;4.10;;;;;;;28.95;27.19;101489.63;6159682;22;20015;-80
2022/05/22 10:42:51;;;;;;;12.18;3.90;;;;;;;28.97;26.93;101468.38;6275448;22;19992;-80
2022/05/22 10:45:21;;;;;;;7.95;3.90;;;;;;;29.21;28.63;101474.06;6275100;22;19984;-80
2022/05/22 10:47:47;;;;;;;9.32;3.90;;;;;;;29.41;27.56;101468.38;6273338;22;19988;-80
2022/05/22 10:50:25;;;;;;;15.18;4.40;;;;;;;29.41;27.48;101462.06;6275161;22;19996;-80
2022/05/22 10:52:51;;;;;;;10.93;4.00;;;;;;;29.60;27.05;101460.97;6275046;22;19992;-80
2022/05/22 10:55:24;;;;;;;8.18;4.13;;;;;;;29.52;26.80;101467.59;6275428;22;20223;-80
2022/05/22 10:57:55;;;;;;;10.65;3.88;;;;;;;29.05;27.12;101455.47;6275296;22;19992;-80
2022/05/22 11:00:21;;;;;;;8.80;3.28;;;;;;;29.13;27.25;101458.75;6275070;22;19988;-80
2022/05/22 11:02:46;;;;;;;6.43;3.80;;;;;;;29.13;26.46;101444.25;6275016;22;20015;-80
2022/05/22 11:05:22;;;;;;;8.53;3.53;;;;;;;28.98;27.62;101452.81;6275338;22;20022;-80
2022/05/22 11:07:51;;;;;;;9.50;4.45;;;;;;;28.76;27.11;101455.09;6275302;22;19988;-79
2022/05/22 11:10:21;;;;;;;8.38;3.72;;;;;;;28.46;27.78;101454.91;6275290;22;20012;-80
2022/05/22 11:13:00;;;;;;;8.38;3.80;;;;;;;28.76;28.32;101449.63;6275218;22;19992;-80
2022/05/22 11:15:28;;;;;;;9.85;4.22;;;;;;;28.52;27.23;101443.09;6248233;23;20048;-80
2022/05/22 11:18:06;;;;;;;11.93;3.97;;;;;;;28.26;29.29;101442.22;6274403;22;20013;-79
2022/05/22 11:20:32;;;;;;;8.38;3.90;;;;;;;28.08;28.04;101440.28;6274248;22;20043;-80
2022/05/22 11:23:26;;;;;;;8.52;3.75;;;;;;;28.30;29.81;101427.09;6274238;22;19992;-80
2022/05/22 11:26:05;;;;;;;8.07;3.60;;;;;;;27.96;29.15;101421.03;6273950;22;19988;-80
2022/05/22 11:28:55;;;;;;;7.65;3.65;;;;;;;28.47;30.09;101410.97;6274265;22;20333;-81
2022/05/22 11:31:43;;;;;;;8.07;3.50;;;;;;;28.56;29.85;101404.22;6274565;22;19990;-80
2022/05/22 11:34:37;;;;;;;11.35;4.10;;;;;;;28.44;29.17;101403.22;6249204;22;20044;-80
2022/05/22 11:37:11;;;;;;;13.60;3.60;;;;;;;28.31;28.68;101398.72;6275028;22;20008;-80
2022/05/22 11:39:49;;;;;;;7.38;3.70;;;;;;;28.01;27.24;101388.44;6274903;22;20031;-80